sensor_id;sensor_type;location;lat;lon;timestamp;P1;durP1;ratioP1;P2;durP2;ratioP2
62933;SDS011;49038;47.600;19.242;2022-12-07T00:00:31;7.05;;;5.37;;
62933;SDS011;49038;47.600;19.242;2022-12-07T00:03:33;5.37;;;3.78;;
62933;SDS011;49038;47.600;19.242;2022-12-07T00:06:37;5.40;;;3.83;;
62933;SDS011;49038;47.600;19.242;2022-12-07T00:09:40;8.70;;;4.47;;
62933;SDS011;49038;47.600;19.242;2022-12-07T00:12:43;7.82;;;5.93;;
62933;SDS011;49038;47.600;19.242;2022-12-07T00:15:45;7.85;;;5.57;;
62933;SDS011;49038;47.600;19.242;2022-12-07T00:18:47;8.45;;;5.53;;
62933;SDS011;49038;47.600;19.242;2022-12-07T00:21:50;17.98;;;7.15;;
62933;SDS011;49038;47.600;19.242;2022-12-07T00:24:52;12.48;;;5.95;;
62933;SDS011;49038;47.600;19.242;2022-12-07T00:27:54;19.48;;;10.18;;
62933;SDS011;49038;47.600;19.242;2022-12-07T00:31:05;66.25;;;32.70;;
62933;SDS011;49038;47.600;19.242;2022-12-07T00:34:17;60.92;;;30.75;;
62933;SDS011;49038;47.600;19.242;2022-12-07T00:37:20;19.50;;;12.32;;
62933;SDS011;49038;47.600;19.242;2022-12-07T00:40:22;30.10;;;14.73;;
62933;SDS011;49038;47.600;19.242;2022-12-07T00:43:25;18.60;;;10.02;;
62933;SDS011;49038;47.600;19.242;2022-12-07T00:46:27;11.52;;;6.47;;
62933;SDS011;49038;47.600;19.242;2022-12-07T00:49:30;10.52;;;7.30;;
62933;SDS011;49038;47.600;19.242;2022-12-07T00:52:32;12.18;;;7.25;;
62933;SDS011;49038;47.600;19.242;2022-12-07T00:55:34;11.20;;;7.40;;
62933;SDS011;49038;47.600;19.242;2022-12-07T00:58:37;12.52;;;8.65;;
62933;SDS011;49038;47.600;19.242;2022-12-07T01:01:39;11.32;;;8.35;;
62933;SDS011;49038;47.600;19.242;2022-12-07T01:04:41;15.60;;;8.50;;
62933;SDS011;49038;47.600;19.242;2022-12-07T01:07:44;13.75;;;7.45;;
62933;SDS011;49038;47.600;19.242;2022-12-07T01:10:48;8.38;;;6.25;;
62933;SDS011;49038;47.600;19.242;2022-12-07T01:13:51;7.75;;;5.07;;
62933;SDS011;49038;47.600;19.242;2022-12-07T01:16:54;11.77;;;5.78;;
62933;SDS011;49038;47.600;19.242;2022-12-07T01:19:57;7.62;;;5.15;;
62933;SDS011;49038;47.600;19.242;2022-12-07T01:22:59;9.60;;;7.10;;
62933;SDS011;49038;47.600;19.242;2022-12-07T01:26:04;6.65;;;5.03;;
62933;SDS011;49038;47.600;19.242;2022-12-07T01:29:08;7.45;;;6.00;;
62933;SDS011;49038;47.600;19.242;2022-12-07T01:32:10;9.27;;;6.78;;
62933;SDS011;49038;47.600;19.242;2022-12-07T01:35:13;9.55;;;6.30;;
62933;SDS011;49038;47.600;19.242;2022-12-07T01:38:15;8.90;;;5.00;;
62933;SDS011;49038;47.600;19.242;2022-12-07T01:41:18;7.90;;;5.57;;
62933;SDS011;49038;47.600;19.242;2022-12-07T01:44:22;8.93;;;6.05;;
62933;SDS011;49038;47.600;19.242;2022-12-07T01:47:26;9.65;;;6.12;;
62933;SDS011;49038;47.600;19.242;2022-12-07T01:50:28;10.73;;;6.78;;
62933;SDS011;49038;47.600;19.242;2022-12-07T01:53:33;8.23;;;4.45;;
62933;SDS011;49038;47.600;19.242;2022-12-07T01:56:38;8.77;;;5.87;;
62933;SDS011;49038;47.600;19.242;2022-12-07T01:59:42;12.80;;;5.22;;
62933;SDS011;49038;47.600;19.242;2022-12-07T02:03:04;5.82;;;3.78;;
62933;SDS011;49038;47.600;19.242;2022-12-07T02:06:12;5.55;;;3.95;;
62933;SDS011;49038;47.600;19.242;2022-12-07T02:09:18;7.40;;;4.93;;
62933;SDS011;49038;47.600;19.242;2022-12-07T02:12:20;8.38;;;5.40;;
62933;SDS011;49038;47.600;19.242;2022-12-07T02:15:25;7.30;;;5.32;;
62933;SDS011;49038;47.600;19.242;2022-12-07T02:22:03;6.95;;;4.70;;
62933;SDS011;49038;47.600;19.242;2022-12-07T02:31:41;10.85;;;5.25;;
62933;SDS011;49038;47.600;19.242;2022-12-07T02:34:50;9.02;;;4.53;;
62933;SDS011;49038;47.600;19.242;2022-12-07T02:41:05;6.82;;;5.07;;
62933;SDS011;49038;47.600;19.242;2022-12-07T02:44:13;4.60;;;3.75;;
62933;SDS011;49038;47.600;19.242;2022-12-07T02:47:18;7.12;;;5.25;;
62933;SDS011;49038;47.600;19.242;2022-12-07T02:50:22;7.55;;;4.60;;
62933;SDS011;49038;47.600;19.242;2022-12-07T02:53:31;7.37;;;5.32;;
62933;SDS011;49038;47.600;19.242;2022-12-07T03:00:24;10.60;;;6.62;;
62933;SDS011;49038;47.600;19.242;2022-12-07T03:03:12;5.37;;;4.75;;
62933;SDS011;49038;47.600;19.242;2022-12-07T03:06:22;11.10;;;5.30;;
62933;SDS011;49038;47.600;19.242;2022-12-07T03:20:02;8.32;;;5.72;;
62933;SDS011;49038;47.600;19.242;2022-12-07T03:23:06;9.40;;;5.28;;
62933;SDS011;49038;47.600;19.242;2022-12-07T03:26:12;7.62;;;4.65;;
62933;SDS011;49038;47.600;19.242;2022-12-07T03:29:19;10.82;;;5.20;;
62933;SDS011;49038;47.600;19.242;2022-12-07T03:32:40;6.28;;;4.55;;
62933;SDS011;49038;47.600;19.242;2022-12-07T03:35:50;7.55;;;5.03;;
62933;SDS011;49038;47.600;19.242;2022-12-07T03:39:02;20.60;;;6.65;;
62933;SDS011;49038;47.600;19.242;2022-12-07T03:42:10;7.70;;;5.70;;
62933;SDS011;49038;47.600;19.242;2022-12-07T03:45:13;25.60;;;6.70;;
62933;SDS011;49038;47.600;19.242;2022-12-07T03:48:26;8.30;;;5.20;;
62933;SDS011;49038;47.600;19.242;2022-12-07T03:51:43;6.18;;;4.10;;
62933;SDS011;49038;47.600;19.242;2022-12-07T03:54:49;8.75;;;4.87;;
62933;SDS011;49038;47.600;19.242;2022-12-07T03:57:56;15.70;;;5.47;;
62933;SDS011;49038;47.600;19.242;2022-12-07T04:01:02;8.25;;;5.68;;
62933;SDS011;49038;47.600;19.242;2022-12-07T04:04:04;8.05;;;5.00;;
62933;SDS011;49038;47.600;19.242;2022-12-07T04:07:06;11.57;;;6.80;;
62933;SDS011;49038;47.600;19.242;2022-12-07T04:10:09;8.23;;;5.75;;
62933;SDS011;49038;47.600;19.242;2022-12-07T04:13:11;6.55;;;5.72;;
62933;SDS011;49038;47.600;19.242;2022-12-07T04:16:13;7.90;;;4.95;;
62933;SDS011;49038;47.600;19.242;2022-12-07T04:19:17;6.85;;;5.25;;
62933;SDS011;49038;47.600;19.242;2022-12-07T04:22:20;9.63;;;5.53;;
62933;SDS011;49038;47.600;19.242;2022-12-07T04:25:22;7.00;;;5.05;;
62933;SDS011;49038;47.600;19.242;2022-12-07T04:28:25;10.30;;;5.03;;
62933;SDS011;49038;47.600;19.242;2022-12-07T04:31:27;6.53;;;5.07;;
62933;SDS011;49038;47.600;19.242;2022-12-07T04:34:29;7.80;;;5.72;;
62933;SDS011;49038;47.600;19.242;2022-12-07T04:37:31;7.03;;;4.43;;
62933;SDS011;49038;47.600;19.242;2022-12-07T04:40:34;8.05;;;4.93;;
62933;SDS011;49038;47.600;19.242;2022-12-07T04:43:36;8.20;;;6.28;;
62933;SDS011;49038;47.600;19.242;2022-12-07T04:46:38;6.93;;;5.53;;
62933;SDS011;49038;47.600;19.242;2022-12-07T04:49:40;7.47;;;4.82;;
62933;SDS011;49038;47.600;19.242;2022-12-07T04:52:43;5.12;;;3.80;;
62933;SDS011;49038;47.600;19.242;2022-12-07T04:55:45;4.37;;;3.80;;
62933;SDS011;49038;47.600;19.242;2022-12-07T04:58:48;4.32;;;3.33;;
62933;SDS011;49038;47.600;19.242;2022-12-07T05:01:50;4.18;;;3.05;;
62933;SDS011;49038;47.600;19.242;2022-12-07T05:04:52;7.20;;;3.12;;
62933;SDS011;49038;47.600;19.242;2022-12-07T05:07:55;6.05;;;4.03;;
62933;SDS011;49038;47.600;19.242;2022-12-07T05:10:57;3.15;;;2.67;;
62933;SDS011;49038;47.600;19.242;2022-12-07T05:14:00;3.58;;;2.53;;
62933;SDS011;49038;47.600;19.242;2022-12-07T05:17:03;3.92;;;3.20;;
62933;SDS011;49038;47.600;19.242;2022-12-07T05:20:06;4.57;;;2.87;;
62933;SDS011;49038;47.600;19.242;2022-12-07T05:23:08;3.30;;;2.58;;
62933;SDS011;49038;47.600;19.242;2022-12-07T05:26:11;4.07;;;2.97;;
62933;SDS011;49038;47.600;19.242;2022-12-07T05:29:14;4.68;;;3.05;;
62933;SDS011;49038;47.600;19.242;2022-12-07T05:32:17;7.45;;;3.72;;
62933;SDS011;49038;47.600;19.242;2022-12-07T05:35:19;4.93;;;3.40;;
62933;SDS011;49038;47.600;19.242;2022-12-07T05:38:22;7.35;;;3.70;;
62933;SDS011;49038;47.600;19.242;2022-12-07T05:41:24;5.22;;;3.37;;
62933;SDS011;49038;47.600;19.242;2022-12-07T05:44:45;6.40;;;4.07;;
62933;SDS011;49038;47.600;19.242;2022-12-07T05:47:48;7.07;;;4.00;;
62933;SDS011;49038;47.600;19.242;2022-12-07T05:50:50;10.10;;;3.85;;
62933;SDS011;49038;47.600;19.242;2022-12-07T05:53:52;5.28;;;3.78;;
62933;SDS011;49038;47.600;19.242;2022-12-07T05:56:55;4.85;;;4.25;;
62933;SDS011;49038;47.600;19.242;2022-12-07T05:59:57;5.80;;;3.75;;
62933;SDS011;49038;47.600;19.242;2022-12-07T06:02:59;6.35;;;4.30;;
62933;SDS011;49038;47.600;19.242;2022-12-07T06:06:02;10.10;;;5.18;;
62933;SDS011;49038;47.600;19.242;2022-12-07T06:09:04;5.32;;;2.72;;
62933;SDS011;49038;47.600;19.242;2022-12-07T06:12:08;5.93;;;3.22;;
62933;SDS011;49038;47.600;19.242;2022-12-07T06:15:32;9.88;;;4.15;;
62933;SDS011;49038;47.600;19.242;2022-12-07T06:18:34;6.12;;;3.45;;
62933;SDS011;49038;47.600;19.242;2022-12-07T06:21:36;6.32;;;3.78;;
62933;SDS011;49038;47.600;19.242;2022-12-07T06:24:39;11.18;;;2.67;;
62933;SDS011;49038;47.600;19.242;2022-12-07T06:27:41;4.72;;;3.28;;
62933;SDS011;49038;47.600;19.242;2022-12-07T06:30:44;9.23;;;2.47;;
62933;SDS011;49038;47.600;19.242;2022-12-07T06:33:46;3.90;;;2.75;;
62933;SDS011;49038;47.600;19.242;2022-12-07T06:36:48;6.25;;;2.85;;
62933;SDS011;49038;47.600;19.242;2022-12-07T06:39:53;7.35;;;4.62;;
62933;SDS011;49038;47.600;19.242;2022-12-07T06:42:55;11.77;;;4.72;;
62933;SDS011;49038;47.600;19.242;2022-12-07T06:45:57;11.02;;;4.45;;
62933;SDS011;49038;47.600;19.242;2022-12-07T06:49:00;9.82;;;5.70;;
62933;SDS011;49038;47.600;19.242;2022-12-07T06:52:02;8.38;;;4.82;;
62933;SDS011;49038;47.600;19.242;2022-12-07T06:55:06;10.50;;;4.53;;
62933;SDS011;49038;47.600;19.242;2022-12-07T06:58:09;3.47;;;2.95;;
62933;SDS011;49038;47.600;19.242;2022-12-07T07:01:11;10.73;;;4.45;;
62933;SDS011;49038;47.600;19.242;2022-12-07T07:04:15;5.50;;;3.47;;
62933;SDS011;49038;47.600;19.242;2022-12-07T07:07:17;3.90;;;3.50;;
62933;SDS011;49038;47.600;19.242;2022-12-07T07:10:19;5.82;;;4.03;;
62933;SDS011;49038;47.600;19.242;2022-12-07T07:13:21;5.22;;;2.97;;
62933;SDS011;49038;47.600;19.242;2022-12-07T07:16:24;6.30;;;3.83;;
62933;SDS011;49038;47.600;19.242;2022-12-07T07:19:26;6.72;;;3.35;;
62933;SDS011;49038;47.600;19.242;2022-12-07T07:22:28;4.43;;;2.92;;
62933;SDS011;49038;47.600;19.242;2022-12-07T07:25:31;5.50;;;3.47;;
62933;SDS011;49038;47.600;19.242;2022-12-07T07:28:33;11.50;;;4.40;;
62933;SDS011;49038;47.600;19.242;2022-12-07T07:31:35;7.85;;;4.47;;
62933;SDS011;49038;47.600;19.242;2022-12-07T07:34:39;6.65;;;4.78;;
62933;SDS011;49038;47.600;19.242;2022-12-07T07:37:41;7.03;;;4.57;;
62933;SDS011;49038;47.600;19.242;2022-12-07T07:40:43;6.50;;;3.90;;
62933;SDS011;49038;47.600;19.242;2022-12-07T07:43:46;5.35;;;3.53;;
62933;SDS011;49038;47.600;19.242;2022-12-07T07:46:48;5.10;;;3.70;;
62933;SDS011;49038;47.600;19.242;2022-12-07T07:49:50;6.12;;;3.78;;
62933;SDS011;49038;47.600;19.242;2022-12-07T07:52:52;8.35;;;4.22;;
62933;SDS011;49038;47.600;19.242;2022-12-07T07:55:55;6.95;;;4.90;;
62933;SDS011;49038;47.600;19.242;2022-12-07T07:58:57;7.03;;;4.03;;
62933;SDS011;49038;47.600;19.242;2022-12-07T08:01:59;14.48;;;5.70;;
62933;SDS011;49038;47.600;19.242;2022-12-07T08:05:02;10.32;;;5.07;;
62933;SDS011;49038;47.600;19.242;2022-12-07T08:08:04;5.12;;;3.65;;
62933;SDS011;49038;47.600;19.242;2022-12-07T08:11:07;12.77;;;6.10;;
62933;SDS011;49038;47.600;19.242;2022-12-07T08:14:10;6.47;;;4.47;;
62933;SDS011;49038;47.600;19.242;2022-12-07T08:17:12;6.10;;;4.25;;
62933;SDS011;49038;47.600;19.242;2022-12-07T08:20:15;7.45;;;5.37;;
62933;SDS011;49038;47.600;19.242;2022-12-07T08:23:17;9.48;;;5.82;;
62933;SDS011;49038;47.600;19.242;2022-12-07T08:26:19;9.85;;;5.97;;
62933;SDS011;49038;47.600;19.242;2022-12-07T08:29:21;8.68;;;5.68;;
62933;SDS011;49038;47.600;19.242;2022-12-07T08:32:23;8.32;;;5.60;;
62933;SDS011;49038;47.600;19.242;2022-12-07T08:35:26;9.45;;;5.70;;
62933;SDS011;49038;47.600;19.242;2022-12-07T08:38:28;11.35;;;6.10;;
62933;SDS011;49038;47.600;19.242;2022-12-07T08:41:33;8.73;;;6.18;;
62933;SDS011;49038;47.600;19.242;2022-12-07T08:44:35;10.18;;;6.75;;
62933;SDS011;49038;47.600;19.242;2022-12-07T08:47:38;9.85;;;5.55;;
62933;SDS011;49038;47.600;19.242;2022-12-07T08:51:02;10.30;;;5.65;;
62933;SDS011;49038;47.600;19.242;2022-12-07T08:54:05;11.73;;;6.47;;
62933;SDS011;49038;47.600;19.242;2022-12-07T08:57:10;10.10;;;6.05;;
62933;SDS011;49038;47.600;19.242;2022-12-07T09:00:12;10.20;;;6.87;;
62933;SDS011;49038;47.600;19.242;2022-12-07T09:03:15;8.13;;;5.43;;
62933;SDS011;49038;47.600;19.242;2022-12-07T09:06:17;12.37;;;6.90;;
62933;SDS011;49038;47.600;19.242;2022-12-07T09:09:19;10.60;;;7.25;;
62933;SDS011;49038;47.600;19.242;2022-12-07T09:12:22;7.82;;;6.05;;
62933;SDS011;49038;47.600;19.242;2022-12-07T09:15:24;8.75;;;5.62;;
62933;SDS011;49038;47.600;19.242;2022-12-07T09:18:26;24.00;;;6.10;;
62933;SDS011;49038;47.600;19.242;2022-12-07T09:21:28;8.15;;;5.12;;
62933;SDS011;49038;47.600;19.242;2022-12-07T09:24:31;13.13;;;4.97;;
62933;SDS011;49038;47.600;19.242;2022-12-07T09:27:33;11.75;;;6.90;;
62933;SDS011;49038;47.600;19.242;2022-12-07T09:30:36;6.75;;;4.93;;
62933;SDS011;49038;47.600;19.242;2022-12-07T09:33:58;8.52;;;4.68;;
62933;SDS011;49038;47.600;19.242;2022-12-07T09:37:02;5.60;;;5.00;;
62933;SDS011;49038;47.600;19.242;2022-12-07T09:40:05;10.30;;;4.97;;
62933;SDS011;49038;47.600;19.242;2022-12-07T09:43:16;7.75;;;4.12;;
62933;SDS011;49038;47.600;19.242;2022-12-07T09:46:20;5.75;;;3.70;;
62933;SDS011;49038;47.600;19.242;2022-12-07T09:49:23;4.72;;;3.45;;
62933;SDS011;49038;47.600;19.242;2022-12-07T09:52:28;6.53;;;3.35;;
62933;SDS011;49038;47.600;19.242;2022-12-07T09:55:39;4.65;;;3.25;;
62933;SDS011;49038;47.600;19.242;2022-12-07T09:58:43;5.45;;;3.30;;
62933;SDS011;49038;47.600;19.242;2022-12-07T10:01:49;3.75;;;3.37;;
62933;SDS011;49038;47.600;19.242;2022-12-07T10:04:51;5.22;;;3.00;;
62933;SDS011;49038;47.600;19.242;2022-12-07T10:07:54;3.72;;;2.75;;
62933;SDS011;49038;47.600;19.242;2022-12-07T10:10:56;3.37;;;3.03;;
62933;SDS011;49038;47.600;19.242;2022-12-07T10:14:09;3.15;;;2.42;;
62933;SDS011;49038;47.600;19.242;2022-12-07T10:17:31;5.05;;;2.22;;
62933;SDS011;49038;47.600;19.242;2022-12-07T10:20:33;3.40;;;2.53;;
62933;SDS011;49038;47.600;19.242;2022-12-07T10:23:36;3.20;;;1.85;;
62933;SDS011;49038;47.600;19.242;2022-12-07T10:26:50;3.90;;;2.50;;
62933;SDS011;49038;47.600;19.242;2022-12-07T10:29:53;6.32;;;4.03;;
62933;SDS011;49038;47.600;19.242;2022-12-07T10:32:55;9.27;;;3.40;;
62933;SDS011;49038;47.600;19.242;2022-12-07T10:35:58;5.80;;;2.87;;
62933;SDS011;49038;47.600;19.242;2022-12-07T10:39:03;4.40;;;2.70;;
62933;SDS011;49038;47.600;19.242;2022-12-07T10:42:23;4.28;;;2.30;;
62933;SDS011;49038;47.600;19.242;2022-12-07T10:45:28;5.35;;;2.90;;
62933;SDS011;49038;47.600;19.242;2022-12-07T10:48:37;5.05;;;3.05;;
62933;SDS011;49038;47.600;19.242;2022-12-07T10:52:09;5.10;;;3.10;;
62933;SDS011;49038;47.600;19.242;2022-12-07T11:05:26;3.40;;;2.78;;
62933;SDS011;49038;47.600;19.242;2022-12-07T11:15:01;4.65;;;3.30;;
62933;SDS011;49038;47.600;19.242;2022-12-07T11:21:56;6.22;;;3.70;;
62933;SDS011;49038;47.600;19.242;2022-12-07T11:28:41;6.35;;;3.60;;
62933;SDS011;49038;47.600;19.242;2022-12-07T11:32:18;5.80;;;4.43;;
62933;SDS011;49038;47.600;19.242;2022-12-07T11:35:24;7.15;;;3.95;;
62933;SDS011;49038;47.600;19.242;2022-12-07T11:38:38;7.18;;;4.30;;
62933;SDS011;49038;47.600;19.242;2022-12-07T11:41:44;5.05;;;3.95;;
62933;SDS011;49038;47.600;19.242;2022-12-07T11:44:49;7.30;;;4.62;;
62933;SDS011;49038;47.600;19.242;2022-12-07T11:51:02;6.10;;;4.20;;
62933;SDS011;49038;47.600;19.242;2022-12-07T11:54:12;6.22;;;3.60;;
62933;SDS011;49038;47.600;19.242;2022-12-07T11:57:20;5.10;;;3.40;;
62933;SDS011;49038;47.600;19.242;2022-12-07T12:00:27;5.53;;;3.42;;
62933;SDS011;49038;47.600;19.242;2022-12-07T12:03:30;4.43;;;3.33;;
62933;SDS011;49038;47.600;19.242;2022-12-07T12:06:40;4.22;;;3.15;;
62933;SDS011;49038;47.600;19.242;2022-12-07T12:09:59;8.20;;;4.32;;
62933;SDS011;49038;47.600;19.242;2022-12-07T12:17:14;5.55;;;4.18;;
62933;SDS011;49038;47.600;19.242;2022-12-07T12:24:16;6.72;;;3.97;;
62933;SDS011;49038;47.600;19.242;2022-12-07T12:27:02;5.40;;;3.92;;
62933;SDS011;49038;47.600;19.242;2022-12-07T12:30:23;6.10;;;3.70;;
62933;SDS011;49038;47.600;19.242;2022-12-07T12:33:43;9.30;;;4.00;;
62933;SDS011;49038;47.600;19.242;2022-12-07T12:36:47;5.03;;;3.42;;
62933;SDS011;49038;47.600;19.242;2022-12-07T12:46:51;5.15;;;3.55;;
62933;SDS011;49038;47.600;19.242;2022-12-07T12:53:29;3.75;;;3.03;;
62933;SDS011;49038;47.600;19.242;2022-12-07T12:56:40;6.65;;;3.25;;
62933;SDS011;49038;47.600;19.242;2022-12-07T13:02:55;5.12;;;3.60;;
62933;SDS011;49038;47.600;19.242;2022-12-07T13:09:35;5.62;;;2.50;;
62933;SDS011;49038;47.600;19.242;2022-12-07T13:12:38;4.97;;;2.97;;
62933;SDS011;49038;47.600;19.242;2022-12-07T13:15:45;3.85;;;3.03;;
62933;SDS011;49038;47.600;19.242;2022-12-07T13:18:55;4.00;;;3.08;;
62933;SDS011;49038;47.600;19.242;2022-12-07T13:21:57;3.28;;;2.42;;
62933;SDS011;49038;47.600;19.242;2022-12-07T13:28:22;5.37;;;3.90;;
62933;SDS011;49038;47.600;19.242;2022-12-07T13:34:37;4.07;;;2.70;;
62933;SDS011;49038;47.600;19.242;2022-12-07T13:37:40;4.53;;;3.20;;
62933;SDS011;49038;47.600;19.242;2022-12-07T13:40:43;4.15;;;3.22;;
62933;SDS011;49038;47.600;19.242;2022-12-07T13:44:14;6.50;;;3.35;;
62933;SDS011;49038;47.600;19.242;2022-12-07T13:47:22;4.18;;;3.28;;
62933;SDS011;49038;47.600;19.242;2022-12-07T13:50:29;4.37;;;3.20;;
62933;SDS011;49038;47.600;19.242;2022-12-07T13:53:33;7.20;;;2.78;;
62933;SDS011;49038;47.600;19.242;2022-12-07T13:56:35;3.00;;;2.08;;
62933;SDS011;49038;47.600;19.242;2022-12-07T13:59:38;5.12;;;3.53;;
62933;SDS011;49038;47.600;19.242;2022-12-07T14:06:23;5.05;;;2.60;;
62933;SDS011;49038;47.600;19.242;2022-12-07T14:09:29;5.43;;;2.45;;
62933;SDS011;49038;47.600;19.242;2022-12-07T14:12:32;10.35;;;4.25;;
62933;SDS011;49038;47.600;19.242;2022-12-07T14:15:35;3.37;;;2.22;;
62933;SDS011;49038;47.600;19.242;2022-12-07T14:18:41;5.78;;;3.40;;
62933;SDS011;49038;47.600;19.242;2022-12-07T14:21:43;3.87;;;2.65;;
62933;SDS011;49038;47.600;19.242;2022-12-07T14:24:45;3.67;;;2.70;;
62933;SDS011;49038;47.600;19.242;2022-12-07T14:27:55;3.17;;;2.87;;
62933;SDS011;49038;47.600;19.242;2022-12-07T14:31:00;6.50;;;2.67;;
62933;SDS011;49038;47.600;19.242;2022-12-07T14:34:02;6.18;;;3.80;;
62933;SDS011;49038;47.600;19.242;2022-12-07T14:37:07;8.27;;;3.20;;
62933;SDS011;49038;47.600;19.242;2022-12-07T14:40:17;5.78;;;3.00;;
62933;SDS011;49038;47.600;19.242;2022-12-07T14:43:28;5.43;;;3.17;;
62933;SDS011;49038;47.600;19.242;2022-12-07T14:46:30;9.52;;;6.25;;
62933;SDS011;49038;47.600;19.242;2022-12-07T14:49:33;9.40;;;5.87;;
62933;SDS011;49038;47.600;19.242;2022-12-07T14:52:35;12.18;;;6.47;;
62933;SDS011;49038;47.600;19.242;2022-12-07T14:55:58;13.88;;;7.90;;
62933;SDS011;49038;47.600;19.242;2022-12-07T14:59:00;15.00;;;7.12;;
62933;SDS011;49038;47.600;19.242;2022-12-07T15:02:02;31.35;;;14.70;;
62933;SDS011;49038;47.600;19.242;2022-12-07T15:05:04;19.30;;;8.40;;
62933;SDS011;49038;47.600;19.242;2022-12-07T15:08:13;23.40;;;13.68;;
62933;SDS011;49038;47.600;19.242;2022-12-07T15:11:16;21.12;;;12.25;;
62933;SDS011;49038;47.600;19.242;2022-12-07T15:14:19;24.48;;;13.13;;
62933;SDS011;49038;47.600;19.242;2022-12-07T15:17:21;28.52;;;15.45;;
62933;SDS011;49038;47.600;19.242;2022-12-07T15:20:32;24.00;;;14.50;;
62933;SDS011;49038;47.600;19.242;2022-12-07T15:23:35;19.10;;;11.65;;
62933;SDS011;49038;47.600;19.242;2022-12-07T15:26:38;30.40;;;13.62;;
62933;SDS011;49038;47.600;19.242;2022-12-07T15:29:41;27.55;;;13.13;;
62933;SDS011;49038;47.600;19.242;2022-12-07T15:32:43;22.00;;;10.90;;
62933;SDS011;49038;47.600;19.242;2022-12-07T15:35:46;25.77;;;13.90;;
62933;SDS011;49038;47.600;19.242;2022-12-07T15:38:48;33.58;;;12.70;;
62933;SDS011;49038;47.600;19.242;2022-12-07T15:42:11;24.40;;;11.93;;
62933;SDS011;49038;47.600;19.242;2022-12-07T15:45:13;31.95;;;13.13;;
62933;SDS011;49038;47.600;19.242;2022-12-07T15:48:15;12.10;;;7.95;;
62933;SDS011;49038;47.600;19.242;2022-12-07T15:51:28;15.05;;;9.00;;
62933;SDS011;49038;47.600;19.242;2022-12-07T15:54:31;18.08;;;9.85;;
62933;SDS011;49038;47.600;19.242;2022-12-07T15:57:34;24.08;;;12.13;;
62933;SDS011;49038;47.600;19.242;2022-12-07T16:00:38;35.15;;;11.60;;
62933;SDS011;49038;47.600;19.242;2022-12-07T16:03:41;22.95;;;13.50;;
62933;SDS011;49038;47.600;19.242;2022-12-07T16:06:43;19.27;;;12.93;;
62933;SDS011;49038;47.600;19.242;2022-12-07T16:09:46;22.05;;;11.52;;
62933;SDS011;49038;47.600;19.242;2022-12-07T16:12:48;17.75;;;11.12;;
62933;SDS011;49038;47.600;19.242;2022-12-07T16:15:51;26.80;;;13.52;;
62933;SDS011;49038;47.600;19.242;2022-12-07T16:18:53;14.63;;;10.10;;
62933;SDS011;49038;47.600;19.242;2022-12-07T16:21:55;25.88;;;11.63;;
62933;SDS011;49038;47.600;19.242;2022-12-07T16:24:58;19.00;;;10.90;;
62933;SDS011;49038;47.600;19.242;2022-12-07T16:28:00;104.57;;;43.72;;
62933;SDS011;49038;47.600;19.242;2022-12-07T16:31:07;44.05;;;20.58;;
62933;SDS011;49038;47.600;19.242;2022-12-07T16:34:11;42.33;;;17.42;;
62933;SDS011;49038;47.600;19.242;2022-12-07T16:37:13;97.43;;;38.80;;
62933;SDS011;49038;47.600;19.242;2022-12-07T16:40:16;101.35;;;39.42;;
62933;SDS011;49038;47.600;19.242;2022-12-07T16:43:18;93.82;;;40.90;;
62933;SDS011;49038;47.600;19.242;2022-12-07T16:46:20;90.72;;;42.88;;
62933;SDS011;49038;47.600;19.242;2022-12-07T16:49:22;84.13;;;37.50;;
62933;SDS011;49038;47.600;19.242;2022-12-07T16:52:26;63.15;;;33.95;;
62933;SDS011;49038;47.600;19.242;2022-12-07T16:55:28;26.00;;;15.73;;
62933;SDS011;49038;47.600;19.242;2022-12-07T16:58:30;34.17;;;19.37;;
62933;SDS011;49038;47.600;19.242;2022-12-07T17:01:33;26.62;;;13.40;;
62933;SDS011;49038;47.600;19.242;2022-12-07T17:04:36;16.65;;;12.70;;
62933;SDS011;49038;47.600;19.242;2022-12-07T17:07:41;19.90;;;11.00;;
62933;SDS011;49038;47.600;19.242;2022-12-07T17:10:43;20.85;;;12.02;;
62933;SDS011;49038;47.600;19.242;2022-12-07T17:13:46;50.90;;;24.35;;
62933;SDS011;49038;47.600;19.242;2022-12-07T17:17:08;38.08;;;21.12;;
62933;SDS011;49038;47.600;19.242;2022-12-07T17:20:10;59.30;;;29.77;;
62933;SDS011;49038;47.600;19.242;2022-12-07T17:23:12;21.75;;;12.90;;
62933;SDS011;49038;47.600;19.242;2022-12-07T17:26:16;18.27;;;11.90;;
62933;SDS011;49038;47.600;19.242;2022-12-07T17:29:20;22.87;;;13.82;;
62933;SDS011;49038;47.600;19.242;2022-12-07T17:32:22;20.60;;;11.73;;
62933;SDS011;49038;47.600;19.242;2022-12-07T17:35:24;11.48;;;10.10;;
62933;SDS011;49038;47.600;19.242;2022-12-07T17:38:29;15.90;;;9.50;;
62933;SDS011;49038;47.600;19.242;2022-12-07T17:41:33;14.13;;;10.45;;
62933;SDS011;49038;47.600;19.242;2022-12-07T17:44:54;23.23;;;14.33;;
62933;SDS011;49038;47.600;19.242;2022-12-07T17:47:56;23.85;;;12.25;;
62933;SDS011;49038;47.600;19.242;2022-12-07T17:50:59;67.30;;;26.23;;
62933;SDS011;49038;47.600;19.242;2022-12-07T17:54:20;76.35;;;39.97;;
62933;SDS011;49038;47.600;19.242;2022-12-07T17:57:23;53.28;;;30.35;;
62933;SDS011;49038;47.600;19.242;2022-12-07T18:00:25;65.00;;;30.52;;
62933;SDS011;49038;47.600;19.242;2022-12-07T18:03:28;68.32;;;33.25;;
62933;SDS011;49038;47.600;19.242;2022-12-07T18:06:30;63.83;;;33.78;;
62933;SDS011;49038;47.600;19.242;2022-12-07T18:09:33;177.10;;;78.50;;
62933;SDS011;49038;47.600;19.242;2022-12-07T18:12:36;108.22;;;56.97;;
62933;SDS011;49038;47.600;19.242;2022-12-07T18:15:41;105.25;;;53.20;;
62933;SDS011;49038;47.600;19.242;2022-12-07T18:18:44;53.70;;;26.25;;
62933;SDS011;49038;47.600;19.242;2022-12-07T18:21:53;56.72;;;29.27;;
62933;SDS011;49038;47.600;19.242;2022-12-07T18:24:56;27.08;;;15.60;;
62933;SDS011;49038;47.600;19.242;2022-12-07T18:27:58;31.12;;;18.08;;
62933;SDS011;49038;47.600;19.242;2022-12-07T18:31:00;26.62;;;17.65;;
62933;SDS011;49038;47.600;19.242;2022-12-07T18:34:19;24.73;;;14.77;;
62933;SDS011;49038;47.600;19.242;2022-12-07T18:37:21;37.35;;;20.60;;
62933;SDS011;49038;47.600;19.242;2022-12-07T18:40:28;36.65;;;20.83;;
62933;SDS011;49038;47.600;19.242;2022-12-07T18:43:30;25.20;;;15.23;;
62933;SDS011;49038;47.600;19.242;2022-12-07T18:46:33;14.18;;;10.25;;
62933;SDS011;49038;47.600;19.242;2022-12-07T18:49:36;15.10;;;10.35;;
62933;SDS011;49038;47.600;19.242;2022-12-07T18:52:38;36.58;;;20.58;;
62933;SDS011;49038;47.600;19.242;2022-12-07T18:55:41;33.50;;;18.95;;
62933;SDS011;49038;47.600;19.242;2022-12-07T18:58:43;26.77;;;17.08;;
62933;SDS011;49038;47.600;19.242;2022-12-07T19:02:09;32.42;;;18.65;;
62933;SDS011;49038;47.600;19.242;2022-12-07T19:05:14;52.42;;;25.45;;
62933;SDS011;49038;47.600;19.242;2022-12-07T19:08:16;28.95;;;17.95;;
62933;SDS011;49038;47.600;19.242;2022-12-07T19:11:20;20.48;;;13.18;;
62933;SDS011;49038;47.600;19.242;2022-12-07T19:14:45;22.60;;;11.35;;
62933;SDS011;49038;47.600;19.242;2022-12-07T19:17:48;24.10;;;15.75;;
62933;SDS011;49038;47.600;19.242;2022-12-07T19:20:50;26.45;;;18.08;;
62933;SDS011;49038;47.600;19.242;2022-12-07T19:23:53;25.70;;;18.42;;
62933;SDS011;49038;47.600;19.242;2022-12-07T19:26:56;28.00;;;18.55;;
62933;SDS011;49038;47.600;19.242;2022-12-07T19:29:59;32.85;;;20.55;;
62933;SDS011;49038;47.600;19.242;2022-12-07T19:33:02;18.92;;;12.60;;
62933;SDS011;49038;47.600;19.242;2022-12-07T19:36:05;24.70;;;13.68;;